sensor_id;sensor_type;location;lat;lon;timestamp;pressure;altitude;pressure_sealevel;temperature;humidity
4469;BME280;2247;42.666;23.292;2023-05-17T00:02:22;93771.97;;;17.74;76.00
4469;BME280;2247;42.666;23.292;2023-05-17T00:04:49;93781.31;;;17.80;75.88
4469;BME280;2247;42.666;23.292;2023-05-17T00:07:19;93791.66;;;17.81;75.72
4469;BME280;2247;42.666;23.292;2023-05-17T00:09:45;93785.53;;;17.81;75.88
4469;BME280;2247;42.666;23.292;2023-05-17T00:12:12;93790.75;;;17.77;75.66
4469;BME280;2247;42.666;23.292;2023-05-17T00:14:39;93784.53;;;17.73;76.14
4469;BME280;2247;42.666;23.292;2023-05-17T00:17:05;93770.41;;;17.73;75.42
4469;BME280;2247;42.666;23.292;2023-05-17T00:19:33;93769.53;;;17.68;75.72
4469;BME280;2247;42.666;23.292;2023-05-17T00:21:59;93774.53;;;17.70;75.40
4469;BME280;2247;42.666;23.292;2023-05-17T00:24:28;93784.84;;;17.71;75.33
4469;BME280;2247;42.666;23.292;2023-05-17T00:26:54;93779.09;;;17.69;75.45
4469;BME280;2247;42.666;23.292;2023-05-17T00:29:21;93773.31;;;17.80;74.97
4469;BME280;2247;42.666;23.292;2023-05-17T00:31:48;93774.97;;;17.72;75.24
4469;BME280;2247;42.666;23.292;2023-05-17T00:34:15;93778.97;;;17.66;75.43
4469;BME280;2247;42.666;23.292;2023-05-17T00:36:42;93777.28;;;17.61;75.64
4469;BME280;2247;42.666;23.292;2023-05-17T00:39:08;93772.84;;;17.65;75.87
4469;BME280;2247;42.666;23.292;2023-05-17T00:41:36;93776.19;;;17.62;76.13
4469;BME280;2247;42.666;23.292;2023-05-17T00:44:04;93788.31;;;17.51;76.36
4469;BME280;2247;42.666;23.292;2023-05-17T00:46:30;93780.94;;;17.36;76.64
4469;BME280;2247;42.666;23.292;2023-05-17T00:48:58;93789.13;;;17.31;76.50
4469;BME280;2247;42.666;23.292;2023-05-17T00:51:25;93783.16;;;17.34;76.27
4469;BME280;2247;42.666;23.292;2023-05-17T00:53:52;93783.03;;;17.30;76.19
4469;BME280;2247;42.666;23.292;2023-05-17T00:56:19;93792.19;;;17.42;75.94
4469;BME280;2247;42.666;23.292;2023-05-17T00:58:47;93800.53;;;17.52;75.25
4469;BME280;2247;42.666;23.292;2023-05-17T01:01:14;93798.34;;;17.54;74.86
4469;BME280;2247;42.666;23.292;2023-05-17T01:03:41;93793.78;;;17.55;74.82
4469;BME280;2247;42.666;23.292;2023-05-17T01:06:08;93792.44;;;17.49;74.79
4469;BME280;2247;42.666;23.292;2023-05-17T01:08:35;93780.53;;;17.46;74.65
4469;BME280;2247;42.666;23.292;2023-05-17T01:11:21;93781.28;;;17.35;74.84
4469;BME280;2247;42.666;23.292;2023-05-17T01:13:57;93790.97;;;17.18;75.30
4469;BME280;2247;42.666;23.292;2023-05-17T01:16:30;93786.25;;;17.03;75.81
4469;BME280;2247;42.666;23.292;2023-05-17T01:19:07;93776.13;;;16.97;75.86
4469;BME280;2247;42.666;23.292;2023-05-17T01:21:45;93759.81;;;16.77;75.91
4469;BME280;2247;42.666;23.292;2023-05-17T01:24:24;93788.25;;;16.85;76.03
4469;BME280;2247;42.666;23.292;2023-05-17T01:26:54;93784.28;;;16.71;75.90
4469;BME280;2247;42.666;23.292;2023-05-17T01:29:23;93783.72;;;16.57;76.78
4469;BME280;2247;42.666;23.292;2023-05-17T01:31:52;93789.38;;;16.55;76.94
4469;BME280;2247;42.666;23.292;2023-05-17T01:34:25;93779.38;;;16.52;77.27
4469;BME280;2247;42.666;23.292;2023-05-17T01:36:52;93779.81;;;16.54;77.20
4469;BME280;2247;42.666;23.292;2023-05-17T01:39:18;93774.69;;;16.49;77.46
4469;BME280;2247;42.666;23.292;2023-05-17T01:41:51;93770.19;;;16.41;77.51
4469;BME280;2247;42.666;23.292;2023-05-17T01:44:27;93782.22;;;16.47;76.87
4469;BME280;2247;42.666;23.292;2023-05-17T01:47:01;93788.25;;;16.65;76.05
4469;BME280;2247;42.666;23.292;2023-05-17T01:49:36;93790.59;;;16.66;75.91
4469;BME280;2247;42.666;23.292;2023-05-17T01:52:07;93793.69;;;16.68;75.87
4469;BME280;2247;42.666;23.292;2023-05-17T01:54:37;93780.84;;;16.70;75.77
4469;BME280;2247;42.666;23.292;2023-05-17T01:57:08;93774.75;;;16.70;75.76
4469;BME280;2247;42.666;23.292;2023-05-17T01:59:39;93774.28;;;16.68;76.04
4469;BME280;2247;42.666;23.292;2023-05-17T02:02:07;93776.16;;;16.67;76.37
4469;BME280;2247;42.666;23.292;2023-05-17T02:04:34;93779.94;;;16.66;76.60
4469;BME280;2247;42.666;23.292;2023-05-17T02:07:01;93775.38;;;16.67;76.32
4469;BME280;2247;42.666;23.292;2023-05-17T02:09:28;93739.25;;;16.36;76.30
4469;BME280;2247;42.666;23.292;2023-05-17T02:11:56;93768.38;;;16.62;76.22
4469;BME280;2247;42.666;23.292;2023-05-17T02:14:23;93769.22;;;16.75;76.11
4469;BME280;2247;42.666;23.292;2023-05-17T02:16:51;93747.03;;;16.71;75.52
4469;BME280;2247;42.666;23.292;2023-05-17T02:19:18;93780.53;;;16.92;75.61
4469;BME280;2247;42.666;23.292;2023-05-17T02:21:45;93769.75;;;16.89;75.78
4469;BME280;2247;42.666;23.292;2023-05-17T02:24:12;93771.47;;;16.93;75.42
4469;BME280;2247;42.666;23.292;2023-05-17T02:26:38;93770.84;;;16.88;75.66
4469;BME280;2247;42.666;23.292;2023-05-17T02:29:07;93766.66;;;16.87;75.65
4469;BME280;2247;42.666;23.292;2023-05-17T02:31:35;93764.47;;;16.80;75.80
4469;BME280;2247;42.666;23.292;2023-05-17T02:34:03;93772.03;;;16.78;76.08
4469;BME280;2247;42.666;23.292;2023-05-17T02:36:31;93765.16;;;16.77;75.96
4469;BME280;2247;42.666;23.292;2023-05-17T02:38:58;93765.00;;;16.74;75.95
4469;BME280;2247;42.666;23.292;2023-05-17T02:41:25;93765.34;;;16.72;75.91
4469;BME280;2247;42.666;23.292;2023-05-17T02:43:52;93766.31;;;16.68;75.95
4469;BME280;2247;42.666;23.292;2023-05-17T02:46:18;93762.13;;;16.58;76.02
4469;BME280;2247;42.666;23.292;2023-05-17T02:48:45;93781.84;;;16.66;75.93
4469;BME280;2247;42.666;23.292;2023-05-17T02:51:14;93779.66;;;16.59;75.97
4469;BME280;2247;42.666;23.292;2023-05-17T02:53:41;93785.47;;;16.52;76.08
4469;BME280;2247;42.666;23.292;2023-05-17T02:56:07;93792.22;;;16.50;76.30
4469;BME280;2247;42.666;23.292;2023-05-17T02:58:34;93793.63;;;16.47;76.33
4469;BME280;2247;42.666;23.292;2023-05-17T03:01:01;93795.69;;;16.42;76.13
4469;BME280;2247;42.666;23.292;2023-05-17T03:03:28;93802.44;;;16.39;76.19
4469;BME280;2247;42.666;23.292;2023-05-17T03:05:59;93807.72;;;16.48;75.94
4469;BME280;2247;42.666;23.292;2023-05-17T03:08:27;93808.38;;;16.45;75.74
4469;BME280;2247;42.666;23.292;2023-05-17T03:10:54;93819.31;;;16.43;75.76
4469;BME280;2247;42.666;23.292;2023-05-17T03:13:21;93802.31;;;16.36;75.87
4469;BME280;2247;42.666;23.292;2023-05-17T03:15:47;93820.09;;;16.44;75.42
4469;BME280;2247;42.666;23.292;2023-05-17T03:18:14;93824.75;;;16.47;75.50
4469;BME280;2247;42.666;23.292;2023-05-17T03:20:41;93823.31;;;16.58;75.07
4469;BME280;2247;42.666;23.292;2023-05-17T03:23:07;93832.72;;;16.55;74.67
4469;BME280;2247;42.666;23.292;2023-05-17T03:25:36;93829.72;;;16.57;75.17
4469;BME280;2247;42.666;23.292;2023-05-17T03:28:03;93823.31;;;16.58;74.93
4469;BME280;2247;42.666;23.292;2023-05-17T03:30:29;93833.69;;;16.51;74.58
4469;BME280;2247;42.666;23.292;2023-05-17T03:32:56;93823.94;;;16.26;74.77
4469;BME280;2247;42.666;23.292;2023-05-17T03:35:23;93825.22;;;16.20;74.29
4469;BME280;2247;42.666;23.292;2023-05-17T03:37:50;93810.06;;;16.11;74.23
4469;BME280;2247;42.666;23.292;2023-05-17T03:40:17;93821.38;;;16.00;75.07
4469;BME280;2247;42.666;23.292;2023-05-17T03:42:45;93818.59;;;15.96;75.49
4469;BME280;2247;42.666;23.292;2023-05-17T03:45:12;93816.91;;;15.83;75.72
4469;BME280;2247;42.666;23.292;2023-05-17T03:47:39;93822.84;;;15.80;75.83
4469;BME280;2247;42.666;23.292;2023-05-17T03:50:07;93821.28;;;15.79;76.00
4469;BME280;2247;42.666;23.292;2023-05-17T03:52:34;93813.41;;;16.00;75.17
4469;BME280;2247;42.666;23.292;2023-05-17T03:55:01;93818.19;;;16.15;74.93
4469;BME280;2247;42.666;23.292;2023-05-17T03:57:28;93820.03;;;16.23;74.75
4469;BME280;2247;42.666;23.292;2023-05-17T03:59:56;93827.56;;;16.21;74.18
4469;BME280;2247;42.666;23.292;2023-05-17T04:02:23;93819.94;;;16.11;74.33
4469;BME280;2247;42.666;23.292;2023-05-17T04:07:32;93828.56;;;15.99;73.70
4469;BME280;2247;42.666;23.292;2023-05-17T04:09:59;93821.53;;;16.03;74.09
4469;BME280;2247;42.666;23.292;2023-05-17T04:12:27;93821.03;;;16.10;73.23
4469;BME280;2247;42.666;23.292;2023-05-17T04:14:59;93826.66;;;16.17;73.43
4469;BME280;2247;42.666;23.292;2023-05-17T04:17:35;93825.97;;;16.29;72.90
4469;BME280;2247;42.666;23.292;2023-05-17T04:20:03;93823.78;;;16.60;72.15
4469;BME280;2247;42.666;23.292;2023-05-17T04:22:31;93821.63;;;16.83;71.16
4469;BME280;2247;42.666;23.292;2023-05-17T04:24:58;93819.53;;;16.88;70.68
4469;BME280;2247;42.666;23.292;2023-05-17T04:27:26;93807.19;;;16.63;71.28
4469;BME280;2247;42.666;23.292;2023-05-17T04:29:53;93795.06;;;16.45;71.34
4469;BME280;2247;42.666;23.292;2023-05-17T04:32:22;93838.94;;;16.60;71.54
4469;BME280;2247;42.666;23.292;2023-05-17T04:34:52;93827.06;;;16.57;72.15
4469;BME280;2247;42.666;23.292;2023-05-17T04:37:20;93826.03;;;16.79;72.18
4469;BME280;2247;42.666;23.292;2023-05-17T04:39:49;93818.25;;;16.94;72.19
4469;BME280;2247;42.666;23.292;2023-05-17T04:42:17;93826.56;;;17.14;71.75
4469;BME280;2247;42.666;23.292;2023-05-17T04:44:44;93819.00;;;17.37;71.30
4469;BME280;2247;42.666;23.292;2023-05-17T04:55:01;93805.34;;;18.89;67.93
4469;BME280;2247;42.666;23.292;2023-05-17T04:57:29;93816.00;;;19.13;64.92
4469;BME280;2247;42.666;23.292;2023-05-17T04:59:56;93819.78;;;19.12;64.25
4469;BME280;2247;42.666;23.292;2023-05-17T05:02:23;93827.69;;;19.21;63.64
4469;BME280;2247;42.666;23.292;2023-05-17T05:04:50;93829.97;;;19.22;62.93
4469;BME280;2247;42.666;23.292;2023-05-17T05:07:17;93830.50;;;19.00;63.12
4469;BME280;2247;42.666;23.292;2023-05-17T05:09:44;93832.28;;;18.84;63.16
4469;BME280;2247;42.666;23.292;2023-05-17T05:12:14;93836.75;;;18.68;63.04
4469;BME280;2247;42.666;23.292;2023-05-17T05:14:41;93852.13;;;18.59;62.97
4469;BME280;2247;42.666;23.292;2023-05-17T05:17:09;93844.75;;;18.68;63.43
4469;BME280;2247;42.666;23.292;2023-05-17T05:19:36;93844.53;;;18.85;62.44
4469;BME280;2247;42.666;23.292;2023-05-17T05:22:03;93846.63;;;19.04;61.25
4469;BME280;2247;42.666;23.292;2023-05-17T05:24:31;93843.78;;;19.24;61.02
4469;BME280;2247;42.666;23.292;2023-05-17T05:26:58;93841.03;;;19.61;60.08
4469;BME280;2247;42.666;23.292;2023-05-17T05:29:26;93840.69;;;19.90;59.59
4469;BME280;2247;42.666;23.292;2023-05-17T05:31:53;93842.94;;;20.20;57.57
4469;BME280;2247;42.666;23.292;2023-05-17T05:34:20;93836.44;;;20.33;57.81
4469;BME280;2247;42.666;23.292;2023-05-17T05:36:47;93842.44;;;20.30;57.37
4469;BME280;2247;42.666;23.292;2023-05-17T05:39:14;93841.94;;;20.40;57.56
4469;BME280;2247;42.666;23.292;2023-05-17T05:41:41;93837.38;;;20.56;56.53
4469;BME280;2247;42.666;23.292;2023-05-17T05:44:08;93834.69;;;20.72;56.42
4469;BME280;2247;42.666;23.292;2023-05-17T05:46:36;93839.00;;;20.76;56.19
4469;BME280;2247;42.666;23.292;2023-05-17T05:49:03;93843.91;;;20.90;56.08
4469;BME280;2247;42.666;23.292;2023-05-17T05:51:30;93837.41;;;21.07;55.23
4469;BME280;2247;42.666;23.292;2023-05-17T05:53:57;93845.81;;;20.90;54.38
4469;BME280;2247;42.666;23.292;2023-05-17T05:56:24;93843.34;;;20.65;55.20
4469;BME280;2247;42.666;23.292;2023-05-17T05:58:52;93838.66;;;20.78;55.83
4469;BME280;2247;42.666;23.292;2023-05-17T06:01:19;93850.19;;;20.98;55.16
4469;BME280;2247;42.666;23.292;2023-05-17T06:03:48;93838.13;;;20.88;54.94
4469;BME280;2247;42.666;23.292;2023-05-17T06:06:15;93856.44;;;21.02;54.46
4469;BME280;2247;42.666;23.292;2023-05-17T06:08:43;93861.97;;;20.93;54.89
4469;BME280;2247;42.666;23.292;2023-05-17T06:11:12;93853.25;;;20.80;55.43
4469;BME280;2247;42.666;23.292;2023-05-17T06:13:39;93839.88;;;20.80;54.61
4469;BME280;2247;42.666;23.292;2023-05-17T06:16:05;93861.16;;;21.08;54.87
4469;BME280;2247;42.666;23.292;2023-05-17T06:18:32;93856.94;;;21.07;53.58
4469;BME280;2247;42.666;23.292;2023-05-17T06:21:01;93859.00;;;21.14;54.13
4469;BME280;2247;42.666;23.292;2023-05-17T06:23:28;93855.03;;;21.08;54.22
4469;BME280;2247;42.666;23.292;2023-05-17T06:25:55;93830.22;;;20.60;54.93
4469;BME280;2247;42.666;23.292;2023-05-17T06:28:22;93866.50;;;20.73;55.31
4469;BME280;2247;42.666;23.292;2023-05-17T06:30:49;93865.38;;;20.59;55.07
4469;BME280;2247;42.666;23.292;2023-05-17T06:33:15;93867.38;;;20.46;55.21
4469;BME280;2247;42.666;23.292;2023-05-17T06:35:42;93868.03;;;20.43;55.64
4469;BME280;2247;42.666;23.292;2023-05-17T06:38:11;93878.06;;;20.46;55.87
4469;BME280;2247;42.666;23.292;2023-05-17T06:40:38;93870.22;;;20.53;55.80
4469;BME280;2247;42.666;23.292;2023-05-17T06:43:05;93869.34;;;20.65;55.86
4469;BME280;2247;42.666;23.292;2023-05-17T06:45:32;93862.50;;;20.83;55.75
4469;BME280;2247;42.666;23.292;2023-05-17T06:47:59;93853.44;;;20.88;55.34
4469;BME280;2247;42.666;23.292;2023-05-17T07:03:23;93857.19;;;21.18;53.90
4469;BME280;2247;42.666;23.292;2023-05-17T07:05:50;93876.03;;;21.21;55.37
4469;BME280;2247;42.666;23.292;2023-05-17T07:08:16;93867.03;;;21.30;55.42
4469;BME280;2247;42.666;23.292;2023-05-17T07:10:43;93894.50;;;21.27;55.30
4469;BME280;2247;42.666;23.292;2023-05-17T07:13:10;93876.03;;;21.21;55.66
4469;BME280;2247;42.666;23.292;2023-05-17T07:15:37;93882.84;;;21.19;55.39
4469;BME280;2247;42.666;23.292;2023-05-17T07:18:04;93882.47;;;21.36;55.07
4469;BME280;2247;42.666;23.292;2023-05-17T07:20:33;93885.16;;;21.36;55.51
4469;BME280;2247;42.666;23.292;2023-05-17T07:23:00;93886.44;;;21.42;55.22
4469;BME280;2247;42.666;23.292;2023-05-17T07:25:27;93889.91;;;21.43;55.10
4469;BME280;2247;42.666;23.292;2023-05-17T07:27:54;93886.38;;;21.23;55.98
4469;BME280;2247;42.666;23.292;2023-05-17T07:30:21;93899.88;;;21.27;56.12
4469;BME280;2247;42.666;23.292;2023-05-17T07:36:07;93885.78;;;21.14;56.52
4469;BME280;2247;42.666;23.292;2023-05-17T07:38:34;93888.09;;;20.80;57.16
4469;BME280;2247;42.666;23.292;2023-05-17T07:41:01;93908.13;;;20.71;57.28
4469;BME280;2247;42.666;23.292;2023-05-17T07:43:28;93893.53;;;20.53;57.69
4469;BME280;2247;42.666;23.292;2023-05-17T07:45:57;93886.34;;;20.57;58.24
4469;BME280;2247;42.666;23.292;2023-05-17T07:48:25;93859.50;;;20.37;58.66
4469;BME280;2247;42.666;23.292;2023-05-17T07:50:52;93885.56;;;20.56;58.75
4469;BME280;2247;42.666;23.292;2023-05-17T07:53:21;93889.28;;;20.52;58.77
4469;BME280;2247;42.666;23.292;2023-05-17T07:55:48;93896.28;;;20.56;58.22
4469;BME280;2247;42.666;23.292;2023-05-17T07:58:15;93883.47;;;20.34;57.81
4469;BME280;2247;42.666;23.292;2023-05-17T08:00:42;93896.91;;;20.22;59.10
4469;BME280;2247;42.666;23.292;2023-05-17T08:03:09;93910.03;;;20.11;59.19
4469;BME280;2247;42.666;23.292;2023-05-17T08:05:37;93891.59;;;19.94;60.15
4469;BME280;2247;42.666;23.292;2023-05-17T08:08:04;93882.59;;;19.86;60.66
4469;BME280;2247;42.666;23.292;2023-05-17T08:10:33;93891.19;;;19.80;61.04
4469;BME280;2247;42.666;23.292;2023-05-17T08:13:00;93906.13;;;19.81;60.93
4469;BME280;2247;42.666;23.292;2023-05-17T08:15:29;93886.22;;;19.66;61.66
4469;BME280;2247;42.666;23.292;2023-05-17T08:17:56;93888.13;;;19.65;61.99
4469;BME280;2247;42.666;23.292;2023-05-17T08:20:23;93878.31;;;19.70;61.28
4469;BME280;2247;42.666;23.292;2023-05-17T08:22:49;93892.69;;;19.65;61.60
4469;BME280;2247;42.666;23.292;2023-05-17T08:25:18;93889.88;;;19.74;61.04
4469;BME280;2247;42.666;23.292;2023-05-17T08:27:46;93886.88;;;19.75;61.87
4469;BME280;2247;42.666;23.292;2023-05-17T08:30:13;93886.19;;;19.78;61.46
4469;BME280;2247;42.666;23.292;2023-05-17T08:32:40;93887.53;;;19.72;61.76
4469;BME280;2247;42.666;23.292;2023-05-17T08:35:09;93876.00;;;19.68;61.62
4469;BME280;2247;42.666;23.292;2023-05-17T08:37:36;93872.53;;;19.67;61.63
4469;BME280;2247;42.666;23.292;2023-05-17T08:40:04;93871.22;;;19.89;61.02
4469;BME280;2247;42.666;23.292;2023-05-17T08:42:32;93885.72;;;19.88;60.71
4469;BME280;2247;42.666;23.292;2023-05-17T08:45:02;93858.66;;;19.78;61.07
4469;BME280;2247;42.666;23.292;2023-05-17T08:47:30;93863.16;;;19.74;61.30
4469;BME280;2247;42.666;23.292;2023-05-17T08:49:58;93867.84;;;19.92;60.66
4469;BME280;2247;42.666;23.292;2023-05-17T08:52:29;93862.63;;;19.68;60.44
4469;BME280;2247;42.666;23.292;2023-05-17T08:54:57;93851.81;;;19.64;59.47
4469;BME280;2247;42.666;23.292;2023-05-17T08:57:27;93878.84;;;19.75;60.61
4469;BME280;2247;42.666;23.292;2023-05-17T08:59:54;93879.84;;;19.83;61.04
4469;BME280;2247;42.666;23.292;2023-05-17T09:02:23;93866.31;;;19.91;60.90
4469;BME280;2247;42.666;23.292;2023-05-17T09:04:51;93869.25;;;20.02;60.46
4469;BME280;2247;42.666;23.292;2023-05-17T09:07:20;93866.44;;;20.11;60.45
4469;BME280;2247;42.666;23.292;2023-05-17T09:09:49;93874.34;;;20.07;60.03
4469;BME280;2247;42.666;23.292;2023-05-17T09:12:16;93864.44;;;20.08;60.37
4469;BME280;2247;42.666;23.292;2023-05-17T09:14:43;93862.53;;;20.08;60.22
4469;BME280;2247;42.666;23.292;2023-05-17T09:17:13;93863.41;;;20.12;61.04
4469;BME280;2247;42.666;23.292;2023-05-17T09:19:44;93861.50;;;20.13;61.12
4469;BME280;2247;42.666;23.292;2023-05-17T09:22:12;93853.22;;;20.02;61.53
4469;BME280;2247;42.666;23.292;2023-05-17T09:24:40;93844.31;;;20.14;61.54
4469;BME280;2247;42.666;23.292;2023-05-17T09:27:07;93858.47;;;20.14;61.59
4469;BME280;2247;42.666;23.292;2023-05-17T09:29:35;93855.72;;;20.11;60.95
4469;BME280;2247;42.666;23.292;2023-05-17T09:32:12;93854.25;;;20.13;61.43
4469;BME280;2247;42.666;23.292;2023-05-17T09:34:39;93859.19;;;20.27;61.07
4469;BME280;2247;42.666;23.292;2023-05-17T09:37:13;93848.75;;;20.22;60.43
4469;BME280;2247;42.666;23.292;2023-05-17T09:39:40;93842.00;;;19.96;60.63
4469;BME280;2247;42.666;23.292;2023-05-17T09:42:09;93857.41;;;19.87;61.53
4469;BME280;2247;42.666;23.292;2023-05-17T09:44:49;93862.94;;;19.94;61.03
4469;BME280;2247;42.666;23.292;2023-05-17T09:47:22;93864.75;;;20.06;60.82
4469;BME280;2247;42.666;23.292;2023-05-17T09:49:49;93869.00;;;19.91;61.26
4469;BME280;2247;42.666;23.292;2023-05-17T09:52:18;93858.66;;;19.78;61.93
4469;BME280;2247;42.666;23.292;2023-05-17T09:54:53;93858.63;;;19.90;61.83
4469;BME280;2247;42.666;23.292;2023-05-17T09:57:20;93833.78;;;19.61;62.23
4469;BME280;2247;42.666;23.292;2023-05-17T09:59:48;93855.47;;;19.72;62.62
4469;BME280;2247;42.666;23.292;2023-05-17T10:02:19;93859.94;;;19.68;62.50
4469;BME280;2247;42.666;23.292;2023-05-17T10:04:48;93849.69;;;19.70;62.82
4469;BME280;2247;42.666;23.292;2023-05-17T10:07:18;93859.63;;;19.70;62.27
4469;BME280;2247;42.666;23.292;2023-05-17T10:09:47;93851.34;;;19.75;62.16
4469;BME280;2247;42.666;23.292;2023-05-17T10:12:16;93875.66;;;19.70;61.82
4469;BME280;2247;42.666;23.292;2023-05-17T10:14:43;93851.41;;;19.62;61.29
4469;BME280;2247;42.666;23.292;2023-05-17T10:17:11;93837.66;;;19.64;61.71
4469;BME280;2247;42.666;23.292;2023-05-17T10:19:38;93839.53;;;19.48;61.80
4469;BME280;2247;42.666;23.292;2023-05-17T10:22:06;93844.66;;;19.41;61.79
4469;BME280;2247;42.666;23.292;2023-05-17T10:24:35;93835.13;;;19.27;62.98
4469;BME280;2247;42.666;23.292;2023-05-17T10:27:03;93822.75;;;19.23;63.13
4469;BME280;2247;42.666;23.292;2023-05-17T10:29:31;93807.28;;;19.16;63.38
4469;BME280;2247;42.666;23.292;2023-05-17T10:32:02;93810.66;;;19.13;63.52
4469;BME280;2247;42.666;23.292;2023-05-17T10:34:29;93814.00;;;19.10;63.50
4469;BME280;2247;42.666;23.292;2023-05-17T10:36:58;93787.13;;;18.91;63.02
4469;BME280;2247;42.666;23.292;2023-05-17T10:39:26;93749.28;;;19.01;63.48
4469;BME280;2247;42.666;23.292;2023-05-17T10:41:56;93780.28;;;19.06;63.82
4469;BME280;2247;42.666;23.292;2023-05-17T10:44:24;93780.19;;;19.02;63.48
4469;BME280;2247;42.666;23.292;2023-05-17T10:46:52;93742.13;;;19.05;63.07
4469;BME280;2247;42.666;23.292;2023-05-17T10:49:23;93709.28;;;18.77;63.36
4469;BME280;2247;42.666;23.292;2023-05-17T10:51:51;93726.34;;;19.00;63.56
4469;BME280;2247;42.666;23.292;2023-05-17T10:54:18;93730.47;;;18.98;62.42
4469;BME280;2247;42.666;23.292;2023-05-17T10:56:49;93719.44;;;18.99;63.33
4469;BME280;2247;42.666;23.292;2023-05-17T10:59:20;93718.22;;;18.97;63.46
4469;BME280;2247;42.666;23.292;2023-05-17T11:02:08;93709.41;;;19.08;63.62
4469;BME280;2247;42.666;23.292;2023-05-17T11:04:36;93677.44;;;18.84;63.87
4469;BME280;2247;42.666;23.292;2023-05-17T11:07:23;93708.72;;;19.11;64.27
4469;BME280;2247;42.666;23.292;2023-05-17T11:09:52;93717.25;;;19.17;64.72
4469;BME280;2247;42.666;23.292;2023-05-17T11:12:31;93706.88;;;19.27;64.16
4469;BME280;2247;42.666;23.292;2023-05-17T11:15:03;93723.09;;;19.35;63.93
4469;BME280;2247;42.666;23.292;2023-05-17T11:17:34;93725.78;;;19.22;64.27
4469;BME280;2247;42.666;23.292;2023-05-17T11:20:03;93703.31;;;19.23;64.19
4469;BME280;2247;42.666;23.292;2023-05-17T11:22:37;93742.97;;;19.37;64.47
4469;BME280;2247;42.666;23.292;2023-05-17T11:25:09;93776.59;;;19.38;64.17
4469;BME280;2247;42.666;23.292;2023-05-17T11:27:42;93775.06;;;19.37;63.61
4469;BME280;2247;42.666;23.292;2023-05-17T11:30:22;93785.25;;;19.19;64.92
4469;BME280;2247;42.666;23.292;2023-05-17T11:32:52;93793.53;;;19.14;65.66
4469;BME280;2247;42.666;23.292;2023-05-17T11:35:23;93813.56;;;18.96;66.09
4469;BME280;2247;42.666;23.292;2023-05-17T11:37:52;93830.50;;;18.88;66.74
4469;BME280;2247;42.666;23.292;2023-05-17T11:40:26;93802.25;;;18.75;66.89
4469;BME280;2247;42.666;23.292;2023-05-17T11:43:09;93802.16;;;18.71;66.86
4469;BME280;2247;42.666;23.292;2023-05-17T11:45:44;93818.28;;;18.75;66.85
4469;BME280;2247;42.666;23.292;2023-05-17T11:48:12;93809.81;;;18.85;67.23
4469;BME280;2247;42.666;23.292;2023-05-17T11:50:40;93837.53;;;18.93;67.17
4469;BME280;2247;42.666;23.292;2023-05-17T11:53:07;93829.97;;;18.82;66.18
4469;BME280;2247;42.666;23.292;2023-05-17T11:55:37;93831.22;;;18.73;66.64
4469;BME280;2247;42.666;23.292;2023-05-17T11:58:06;93812.28;;;18.78;66.83
4469;BME280;2247;42.666;23.292;2023-05-17T12:00:34;93848.00;;;18.73;66.93
4469;BME280;2247;42.666;23.292;2023-05-17T12:03:19;93819.63;;;18.69;66.78
4469;BME280;2247;42.666;23.292;2023-05-17T12:05:48;93814.97;;;18.66;66.98
4469;BME280;2247;42.666;23.292;2023-05-17T12:08:16;93814.84;;;18.74;66.93
4469;BME280;2247;42.666;23.292;2023-05-17T12:10:47;93823.06;;;18.81;66.76
4469;BME280;2247;42.666;23.292;2023-05-17T12:13:14;93797.78;;;18.91;66.30
4469;BME280;2247;42.666;23.292;2023-05-17T12:15:44;93818.84;;;18.93;65.70
4469;BME280;2247;42.666;23.292;2023-05-17T12:18:11;93827.16;;;18.91;65.97
4469;BME280;2247;42.666;23.292;2023-05-17T12:20:51;93820.28;;;18.90;64.94
4469;BME280;2247;42.666;23.292;2023-05-17T12:23:25;93806.25;;;18.81;65.24
4469;BME280;2247;42.666;23.292;2023-05-17T12:26:01;93808.03;;;18.89;65.11
4469;BME280;2247;42.666;23.292;2023-05-17T12:28:28;93824.84;;;18.89;65.06
4469;BME280;2247;42.666;23.292;2023-05-17T12:30:56;93827.50;;;18.89;64.76
4469;BME280;2247;42.666;23.292;2023-05-17T12:33:28;93799.59;;;18.87;64.82
4469;BME280;2247;42.666;23.292;2023-05-17T12:35:57;93782.88;;;18.90;64.38
4469;BME280;2247;42.666;23.292;2023-05-17T12:38:26;93794.56;;;18.98;64.11
4469;BME280;2247;42.666;23.292;2023-05-17T12:40:56;93794.75;;;19.05;63.49
4469;BME280;2247;42.666;23.292;2023-05-17T12:43:24;93788.56;;;19.01;63.34
4469;BME280;2247;42.666;23.292;2023-05-17T12:45:51;93788.75;;;18.96;63.55
4469;BME280;2247;42.666;23.292;2023-05-17T12:48:23;93793.31;;;19.07;63.72
4469;BME280;2247;42.666;23.292;2023-05-17T12:50:50;93795.00;;;19.00;63.82
4469;BME280;2247;42.666;23.292;2023-05-17T12:53:21;93764.69;;;18.80;64.61
4469;BME280;2247;42.666;23.292;2023-05-17T12:55:50;93778.19;;;18.99;64.56
4469;BME280;2247;42.666;23.292;2023-05-17T12:58:22;93777.47;;;18.86;65.28
4469;BME280;2247;42.666;23.292;2023-05-17T13:00:56;93786.25;;;18.87;65.90
4469;BME280;2247;42.666;23.292;2023-05-17T13:03:24;93779.88;;;18.92;65.28
4469;BME280;2247;42.666;23.292;2023-05-17T13:06:02;93777.00;;;18.84;65.57
4469;BME280;2247;42.666;23.292;2023-05-17T13:08:31;93776.19;;;18.96;65.88
4469;BME280;2247;42.666;23.292;2023-05-17T13:11:06;93782.44;;;19.00;64.82
4469;BME280;2247;42.666;23.292;2023-05-17T13:13:33;93778.31;;;18.91;64.19
4469;BME280;2247;42.666;23.292;2023-05-17T13:16:00;93814.16;;;18.89;63.64
4469;BME280;2247;42.666;23.292;2023-05-17T13:18:27;93777.56;;;18.78;63.89
4469;BME280;2247;42.666;23.292;2023-05-17T13:20:54;93780.81;;;18.71;63.64
4469;BME280;2247;42.666;23.292;2023-05-17T13:23:21;93807.16;;;18.61;64.71
4469;BME280;2247;42.666;23.292;2023-05-17T13:25:49;93784.81;;;18.53;64.36
4469;BME280;2247;42.666;23.292;2023-05-17T13:28:18;93793.94;;;18.52;64.66
4469;BME280;2247;42.666;23.292;2023-05-17T13:30:45;93792.47;;;18.55;63.70
4469;BME280;2247;42.666;23.292;2023-05-17T13:33:16;93793.03;;;18.60;63.87
4469;BME280;2247;42.666;23.292;2023-05-17T13:35:43;93791.69;;;18.54;64.16
4469;BME280;2247;42.666;23.292;2023-05-17T13:38:10;93800.06;;;18.53;64.20
4469;BME280;2247;42.666;23.292;2023-05-17T13:40:37;93784.69;;;18.49;64.62
4469;BME280;2247;42.666;23.292;2023-05-17T13:43:06;93811.84;;;18.64;64.69
4469;BME280;2247;42.666;23.292;2023-05-17T13:45:34;93806.84;;;18.62;64.64